createdAt,value
2023-06-29T00:04:42.758Z,3.80
2023-06-29T00:09:46.104Z,3.40
2023-06-29T00:14:48.888Z,3.50
2023-06-29T00:19:51.768Z,3.70
2023-06-29T00:25:00.214Z,3.50
2023-06-29T00:30:03.132Z,4.90
2023-06-29T00:35:06.389Z,4.30
2023-06-29T00:40:10.877Z,4.30
2023-06-29T00:45:14.700Z,3.70
2023-06-29T00:50:18.379Z,4.30
2023-06-29T00:55:21.742Z,4.60
2023-06-29T01:00:25.175Z,4.80
2023-06-29T01:05:34.358Z,5.10
2023-06-29T01:15:42.225Z,4.90
2023-06-29T01:20:50.038Z,4.80
2023-06-29T01:25:56.001Z,5.60
2023-06-29T01:30:59.742Z,5.40
2023-06-29T01:36:12.304Z,5.80
2023-06-29T01:41:18.041Z,6.30
2023-06-29T01:46:22.678Z,5.30
2023-06-29T01:51:25.668Z,5.40
2023-06-29T01:56:28.635Z,5.60
2023-06-29T02:01:31.790Z,6.50
2023-06-29T02:06:34.715Z,6.30
2023-06-29T02:11:37.484Z,7.10
2023-06-29T02:16:40.314Z,5.80
2023-06-29T02:21:43.112Z,6.20
2023-06-29T02:26:45.916Z,6.30
2023-06-29T02:31:49.392Z,5.70
2023-06-29T02:36:52.218Z,5.50
2023-06-29T02:41:54.974Z,5.70
2023-06-29T02:46:57.707Z,5.70
2023-06-29T02:52:00.921Z,5.50
2023-06-29T02:57:04.047Z,5.30
2023-06-29T03:02:07.213Z,5.40
2023-06-29T03:07:10.288Z,5.10
2023-06-29T03:12:13.529Z,5.00
2023-06-29T03:17:16.467Z,6.20
2023-06-29T03:22:19.309Z,6.40
2023-06-29T03:27:22.039Z,5.60
2023-06-29T03:32:24.862Z,6.00
2023-06-29T03:37:27.617Z,5.30
2023-06-29T03:42:30.376Z,6.30
2023-06-29T03:47:33.135Z,6.70
2023-06-29T03:52:35.950Z,7.10
2023-06-29T03:57:38.920Z,6.40
2023-06-29T04:02:41.895Z,6.80
2023-06-29T04:07:45.042Z,6.50
2023-06-29T04:12:47.964Z,5.20
2023-06-29T04:17:51.302Z,7.50
2023-06-29T04:22:54.193Z,6.60
2023-06-29T04:27:57.396Z,7.10
2023-06-29T04:33:10.969Z,7.10
2023-06-29T04:38:14.614Z,6.50
2023-06-29T04:43:17.521Z,6.40
2023-06-29T04:48:20.797Z,7.00
2023-06-29T04:53:23.517Z,6.90
2023-06-29T04:58:26.856Z,7.10
2023-06-29T05:03:29.728Z,6.50
2023-06-29T05:08:32.668Z,7.10
2023-06-29T05:13:37.365Z,6.00
2023-06-29T05:18:40.852Z,6.10
2023-06-29T05:23:44.331Z,5.80
2023-06-29T05:29:00.488Z,5.80
2023-06-29T05:34:08.276Z,6.40
2023-06-29T05:39:11.659Z,6.60
2023-06-29T05:44:14.494Z,8.00
2023-06-29T05:49:18.177Z,6.40
2023-06-29T05:54:20.958Z,5.60
2023-06-29T05:59:24.106Z,6.00
2023-06-29T06:04:27.218Z,5.90
2023-06-29T06:09:30.390Z,5.90
2023-06-29T06:14:33.790Z,4.80
2023-06-29T06:19:36.586Z,5.00
2023-06-29T06:24:39.525Z,5.10
2023-06-29T06:29:42.431Z,5.00
2023-06-29T06:34:47.308Z,4.70
2023-06-29T06:39:50.310Z,4.10
2023-06-29T06:44:54.534Z,4.20
2023-06-29T06:49:57.355Z,3.60
2023-06-29T06:55:00.540Z,3.90
2023-06-29T07:00:04.700Z,3.80
2023-06-29T07:05:08.067Z,3.80
2023-06-29T07:10:11.114Z,4.10
2023-06-29T07:15:13.927Z,3.80
2023-06-29T07:25:22.571Z,3.70
2023-06-29T07:30:25.719Z,3.40
2023-06-29T07:35:28.577Z,3.40
2023-06-29T07:40:31.540Z,3.60
2023-06-29T07:45:34.403Z,3.50
2023-06-29T07:50:37.511Z,3.50
2023-06-29T07:55:40.616Z,3.40
2023-06-29T08:00:43.458Z,3.40
2023-06-29T08:10:52.285Z,3.40
2023-06-29T08:15:55.707Z,3.00
2023-06-29T08:20:58.529Z,2.80
2023-06-29T08:26:01.418Z,3.10
2023-06-29T08:31:06.509Z,3.10
2023-06-29T08:36:10.331Z,3.00
2023-06-29T08:41:15.141Z,3.10
2023-06-29T08:46:18.110Z,3.00
2023-06-29T08:51:23.352Z,2.90
2023-06-29T08:56:26.811Z,3.00
2023-06-29T09:01:31.065Z,2.70
2023-06-29T09:06:34.113Z,3.00
2023-06-29T09:11:37.371Z,2.80
2023-06-29T09:16:54.090Z,3.10
2023-06-29T09:21:58.615Z,2.60
2023-06-29T09:32:06.334Z,2.90
2023-06-29T09:37:14.493Z,3.00
2023-06-29T09:42:17.456Z,3.00
2023-06-29T09:52:46.299Z,2.90
2023-06-29T09:57:51.386Z,3.00
2023-06-29T10:02:55.443Z,2.90
2023-06-29T10:07:59.235Z,3.00
2023-06-29T10:13:06.062Z,3.00
2023-06-29T10:18:13.225Z,2.80
2023-06-29T10:23:18.993Z,2.70
2023-06-29T10:28:23.048Z,2.60
2023-06-29T10:33:25.800Z,2.60
2023-06-29T10:38:33.686Z,3.00
2023-06-29T10:43:59.712Z,2.60
2023-06-29T10:49:02.583Z,2.40
2023-06-29T10:54:05.431Z,2.50
2023-06-29T10:59:09.601Z,2.70
2023-06-29T11:04:13.212Z,2.60
2023-06-29T11:09:16.243Z,2.50
2023-06-29T11:14:20.208Z,2.30
2023-06-29T11:19:28.672Z,2.40
2023-06-29T11:24:31.708Z,2.30
2023-06-29T11:29:34.591Z,2.30
2023-06-29T11:34:37.371Z,2.20
2023-06-29T11:39:40.090Z,2.20
2023-06-29T11:44:42.879Z,2.20
2023-06-29T11:49:50.624Z,2.30
2023-06-29T11:54:54.291Z,2.10
2023-06-29T11:59:57.080Z,2.10
2023-06-29T12:05:03.041Z,2.40
2023-06-29T12:10:11.436Z,1.80
2023-06-29T12:15:22.716Z,2.20
2023-06-29T12:20:26.303Z,2.40
2023-06-29T12:25:29.191Z,2.00
2023-06-29T12:30:31.934Z,2.20
2023-06-29T12:35:34.690Z,2.20
2023-06-29T12:40:39.392Z,2.10
2023-06-29T12:45:42.288Z,2.10
2023-06-29T12:50:45.878Z,2.10
2023-06-29T12:55:49.144Z,2.30
2023-06-29T13:00:53.144Z,2.20
2023-06-29T13:05:56.325Z,2.60
2023-06-29T13:10:59.736Z,2.50
2023-06-29T13:16:02.811Z,2.30
2023-06-29T13:21:05.628Z,2.10
2023-06-29T13:26:08.382Z,2.40
2023-06-29T13:31:11.388Z,2.20
2023-06-29T13:36:14.360Z,2.20
2023-06-29T13:41:19.954Z,2.00
2023-06-29T13:46:22.686Z,2.30
2023-06-29T13:51:25.819Z,2.40
2023-06-29T13:56:30.156Z,2.40
2023-06-29T14:01:33.456Z,2.40
2023-06-29T14:06:39.850Z,2.40
2023-06-29T14:11:42.844Z,2.50
2023-06-29T14:16:46.662Z,2.50
2023-06-29T14:21:49.463Z,2.30
2023-06-29T14:26:54.395Z,2.60
2023-06-29T14:31:57.272Z,2.90
2023-06-29T14:37:00.216Z,2.70
2023-06-29T14:42:03.005Z,3.00
2023-06-29T14:47:06.392Z,2.80
2023-06-29T14:52:09.179Z,2.90
2023-06-29T14:57:12.261Z,2.60
2023-06-29T15:02:15.559Z,3.00
2023-06-29T15:07:18.356Z,2.80
2023-06-29T15:12:22.373Z,2.70
2023-06-29T15:17:26.463Z,2.60
2023-06-29T15:22:29.237Z,2.80
2023-06-29T15:27:32.051Z,2.80
2023-06-29T15:32:34.833Z,2.80
2023-06-29T15:37:37.751Z,2.50
2023-06-29T15:42:40.516Z,2.70
2023-06-29T15:47:43.432Z,2.40
2023-06-29T15:52:46.392Z,2.80
2023-06-29T15:57:49.748Z,2.50
2023-06-29T16:02:52.495Z,2.50
2023-06-29T16:07:58.344Z,2.30
2023-06-29T16:13:01.122Z,2.60
2023-06-29T16:18:04.299Z,2.40
2023-06-29T16:23:07.242Z,2.10
2023-06-29T16:28:10.065Z,2.30
2023-06-29T16:33:12.844Z,2.30
2023-06-29T16:38:15.794Z,2.50
2023-06-29T16:43:18.683Z,1.90
2023-06-29T16:48:21.873Z,2.00
2023-06-29T16:53:24.608Z,2.20
2023-06-29T16:58:28.774Z,2.50
2023-06-29T17:03:32.370Z,2.00
2023-06-29T17:08:35.454Z,2.20
2023-06-29T17:13:38.169Z,2.10
2023-06-29T17:18:40.999Z,2.10
2023-06-29T17:23:43.867Z,1.80
2023-06-29T17:28:46.619Z,2.00
2023-06-29T17:33:55.062Z,1.70
2023-06-29T17:38:58.657Z,2.60
2023-06-29T17:44:01.437Z,1.80
2023-06-29T17:49:04.182Z,2.00
2023-06-29T17:54:06.931Z,2.00
2023-06-29T17:59:09.728Z,2.50
2023-06-29T18:04:13.321Z,2.20
2023-06-29T18:09:16.472Z,1.90
2023-06-29T18:14:19.257Z,2.00
2023-06-29T18:19:22.015Z,2.50
2023-06-29T18:24:24.768Z,2.30
2023-06-29T18:29:30.317Z,2.20
2023-06-29T18:34:33.230Z,2.20
2023-06-29T18:39:35.973Z,1.90
2023-06-29T18:44:39.173Z,2.00
2023-06-29T18:49:52.233Z,2.20
2023-06-29T18:54:57.278Z,2.40
2023-06-29T19:00:00.725Z,2.10
2023-06-29T19:05:04.221Z,2.10
2023-06-29T19:10:07.777Z,2.50
2023-06-29T19:15:11.108Z,3.00
2023-06-29T19:20:13.894Z,2.50
2023-06-29T19:25:16.765Z,2.70
2023-06-29T19:30:19.510Z,2.70
2023-06-29T19:35:22.364Z,3.40
2023-06-29T19:40:25.487Z,3.30
2023-06-29T19:45:28.377Z,3.40
2023-06-29T19:50:31.339Z,3.30
2023-06-29T19:55:35.888Z,3.30
2023-06-29T20:00:38.732Z,3.70
2023-06-29T20:05:42.965Z,3.50
2023-06-29T20:10:48.556Z,3.50
2023-06-29T20:15:51.496Z,3.10
2023-06-29T20:20:54.505Z,3.10
2023-06-29T20:25:57.251Z,3.30
2023-06-29T20:31:00.059Z,2.80
2023-06-29T20:36:03.487Z,3.00
2023-06-29T20:41:06.246Z,2.90
2023-06-29T20:46:09.025Z,3.20
2023-06-29T20:51:16.943Z,3.10
2023-06-29T20:56:20.935Z,3.30
2023-06-29T21:01:25.016Z,3.50
2023-06-29T21:06:28.150Z,3.80
2023-06-29T21:11:32.412Z,3.50
2023-06-29T21:16:35.658Z,3.30
2023-06-29T21:21:38.958Z,3.30
2023-06-29T21:26:41.762Z,3.60
2023-06-29T21:31:45.389Z,4.70
2023-06-29T21:36:48.941Z,4.50
2023-06-29T21:41:51.769Z,3.80
2023-06-29T21:46:54.661Z,3.70
2023-06-29T21:51:57.637Z,3.60
2023-06-29T21:57:00.395Z,4.20
2023-06-29T22:02:03.232Z,3.70
2023-06-29T22:12:14.733Z,3.30
2023-06-29T22:17:17.625Z,3.70
2023-06-29T22:22:20.354Z,3.60
2023-06-29T22:27:23.107Z,4.10
2023-06-29T22:32:26.323Z,4.10
2023-06-29T22:37:29.279Z,4.00
2023-06-29T22:42:32.030Z,3.40
2023-06-29T22:47:34.796Z,4.10
2023-06-29T22:52:37.682Z,4.10
2023-06-29T22:57:40.852Z,4.00
2023-06-29T23:02:43.798Z,3.70
2023-06-29T23:07:47.739Z,3.70
2023-06-29T23:12:50.508Z,3.30
2023-06-29T23:17:54.940Z,3.80
2023-06-29T23:22:58.951Z,3.90
2023-06-29T23:28:04.489Z,4.30
2023-06-29T23:33:09.752Z,4.10
2023-06-29T23:38:12.824Z,4.10
2023-06-29T23:43:15.698Z,3.80
2023-06-29T23:48:18.508Z,4.40
2023-06-29T23:53:21.509Z,4.20
2023-06-29T23:58:24.485Z,4.60
